createdAt,value
2022-11-07T00:02:28.741Z,100459.70
2022-11-07T00:05:01.255Z,100509.14
2022-11-07T00:07:34.563Z,100523.42
2022-11-07T00:10:07.474Z,100513.20
2022-11-07T00:12:40.314Z,100503.73
2022-11-07T00:15:15.192Z,100494.15
2022-11-07T00:17:47.616Z,100487.39
2022-11-07T00:20:20.023Z,100476.09
2022-11-07T00:22:52.071Z,100478.45
2022-11-07T00:25:24.298Z,100472.06
2022-11-07T00:27:57.382Z,100472.36
2022-11-07T00:30:29.714Z,100475.54
2022-11-07T00:33:01.911Z,100461.06
2022-11-07T00:35:34.495Z,100459.40
2022-11-07T00:38:06.766Z,100459.30
2022-11-07T00:40:39.163Z,100451.98
2022-11-07T00:43:12.720Z,100447.11
2022-11-07T00:45:44.549Z,100448.36
2022-11-07T00:48:16.720Z,100453.21
2022-11-07T00:50:50.623Z,100459.35
2022-11-07T00:53:22.875Z,100461.65
2022-11-07T00:55:54.951Z,100462.23
2022-11-07T00:58:27.406Z,100467.08
2022-11-07T01:00:59.876Z,100466.11
2022-11-07T01:03:49.622Z,100464.11
2022-11-07T01:06:23.718Z,100470.64
2022-11-07T01:08:57.828Z,100467.64
2022-11-07T01:11:31.352Z,100462.98
2022-11-07T01:14:05.574Z,100458.83
2022-11-07T01:16:39.141Z,100457.02
2022-11-07T01:19:12.051Z,100458.55
2022-11-07T01:21:45.031Z,100451.88
2022-11-07T01:24:18.211Z,100456.05
2022-11-07T01:26:51.809Z,100455.57
2022-11-07T01:29:25.312Z,100452.02
2022-11-07T01:31:57.806Z,100450.66
2022-11-07T01:34:30.077Z,100453.81
2022-11-07T01:37:03.678Z,100450.98
2022-11-07T01:39:38.492Z,100437.60
2022-11-07T01:42:16.049Z,100437.45
2022-11-07T01:44:59.946Z,100425.91
2022-11-07T01:47:36.268Z,100426.82
2022-11-07T01:50:12.556Z,100419.09
2022-11-07T01:52:50.541Z,100414.05
2022-11-07T01:55:29.245Z,100411.57
2022-11-07T01:58:10.204Z,100410.29
2022-11-07T02:00:43.046Z,100408.55
2022-11-07T02:03:19.795Z,100405.71
2022-11-07T02:05:57.619Z,100404.95
2022-11-07T02:08:33.951Z,100410.45
2022-11-07T02:11:10.035Z,100403.69
2022-11-07T02:13:42.976Z,100404.48
2022-11-07T02:16:16.313Z,100397.90
2022-11-07T02:18:49.273Z,100395.84
2022-11-07T02:21:41.249Z,100382.05
2022-11-07T02:24:25.963Z,100390.84
2022-11-07T02:26:59.884Z,100390.98
2022-11-07T02:29:34.522Z,100386.44
2022-11-07T02:32:08.876Z,100385.73
2022-11-07T02:34:42.309Z,100383.08
2022-11-07T02:37:25.492Z,100380.55
2022-11-07T02:39:58.463Z,100384.02
2022-11-07T02:42:43.555Z,100386.34
2022-11-07T02:45:20.044Z,100383.05
2022-11-07T02:47:52.316Z,100382.56
2022-11-07T02:50:24.963Z,100386.14
2022-11-07T02:52:57.403Z,100382.23
2022-11-07T02:55:29.540Z,100376.84
2022-11-07T02:58:02.134Z,100377.23
2022-11-07T03:00:34.935Z,100373.74
2022-11-07T03:03:06.968Z,100371.86
2022-11-07T03:05:41.042Z,100376.34
2022-11-07T03:08:13.290Z,100370.52
2022-11-07T03:10:45.562Z,100371.06
2022-11-07T03:13:17.878Z,100379.10
2022-11-07T03:15:51.609Z,100382.09
2022-11-07T03:18:24.270Z,100383.17
2022-11-07T03:20:56.555Z,100384.19
2022-11-07T03:23:28.647Z,100383.40
2022-11-07T03:26:00.969Z,100384.68
2022-11-07T03:28:36.097Z,100386.27
2022-11-07T03:31:09.556Z,100383.70
2022-11-07T03:33:42.306Z,100383.45
2022-11-07T03:36:14.658Z,100381.38
2022-11-07T03:38:47.534Z,100376.80
2022-11-07T03:41:20.059Z,100380.77
2022-11-07T03:43:52.224Z,100371.08
2022-11-07T03:46:24.772Z,100368.22
2022-11-07T03:48:57.096Z,100371.80
2022-11-07T03:51:29.573Z,100370.23
2022-11-07T03:54:01.818Z,100373.36
2022-11-07T03:56:34.277Z,100382.47
2022-11-07T03:59:06.315Z,100383.77
2022-11-07T04:01:39.031Z,100383.39
2022-11-07T04:04:13.369Z,100379.53
2022-11-07T04:06:45.419Z,100380.64
2022-11-07T04:09:17.935Z,100377.27
2022-11-07T04:12:07.705Z,100360.52
2022-11-07T04:14:57.480Z,100368.08
2022-11-07T04:17:32.362Z,100368.11
2022-11-07T04:20:11.171Z,100366.01
2022-11-07T04:22:43.877Z,100365.63
2022-11-07T04:25:17.199Z,100359.72
2022-11-07T04:27:49.461Z,100354.73
2022-11-07T04:30:25.853Z,100352.50
2022-11-07T04:33:00.348Z,100352.02
2022-11-07T04:35:34.689Z,100349.83
2022-11-07T04:38:10.760Z,100350.17
2022-11-07T04:40:43.642Z,100351.41
2022-11-07T04:43:16.036Z,100357.77
2022-11-07T04:45:48.485Z,100356.27
2022-11-07T04:48:20.651Z,100353.96
2022-11-07T04:50:53.515Z,100355.66
2022-11-07T04:53:26.758Z,100350.05
2022-11-07T04:55:59.689Z,100350.21
2022-11-07T04:58:31.752Z,100346.75
2022-11-07T05:01:03.906Z,100343.81
2022-11-07T05:03:41.299Z,100347.73
2022-11-07T05:06:16.341Z,100345.99
2022-11-07T05:08:48.765Z,100349.62
2022-11-07T05:11:22.709Z,100346.61
2022-11-07T05:13:54.829Z,100346.14
2022-11-07T05:16:27.710Z,100341.20
2022-11-07T05:18:59.842Z,100343.48
2022-11-07T05:21:32.074Z,100343.21
2022-11-07T05:24:04.522Z,100338.95
2022-11-07T05:26:36.707Z,100345.89
2022-11-07T05:29:11.642Z,100339.77
2022-11-07T05:31:43.818Z,100336.21
2022-11-07T05:34:16.490Z,100336.69
2022-11-07T05:36:48.504Z,100340.96
2022-11-07T05:39:20.653Z,100342.77
2022-11-07T05:41:53.077Z,100352.41
2022-11-07T05:44:25.344Z,100352.71
2022-11-07T05:46:59.006Z,100357.50
2022-11-07T05:49:31.282Z,100360.52
2022-11-07T05:52:03.642Z,100364.71
2022-11-07T05:54:37.056Z,100367.42
2022-11-07T05:57:09.496Z,100372.20
2022-11-07T05:59:41.954Z,100374.84
2022-11-07T06:02:14.809Z,100375.91
2022-11-07T06:04:46.850Z,100357.73
2022-11-07T06:07:19.576Z,100378.13
2022-11-07T06:09:52.210Z,100387.75
2022-11-07T06:12:24.639Z,100390.65
2022-11-07T06:14:57.054Z,100387.67
2022-11-07T06:17:29.372Z,100391.27
2022-11-07T06:20:01.370Z,100384.64
2022-11-07T06:22:34.159Z,100381.02
2022-11-07T06:25:08.410Z,100385.34
2022-11-07T06:27:43.705Z,100386.82
2022-11-07T06:30:16.299Z,100388.98
2022-11-07T06:32:48.370Z,100394.19
2022-11-07T06:35:20.452Z,100397.80
2022-11-07T06:37:53.757Z,100404.20
2022-11-07T06:40:26.216Z,100408.88
2022-11-07T06:43:06.331Z,100401.41
2022-11-07T06:45:39.188Z,100404.41
2022-11-07T06:48:13.418Z,100409.36
2022-11-07T06:50:45.459Z,100412.52
2022-11-07T06:53:18.048Z,100413.98
2022-11-07T06:55:50.703Z,100424.14
2022-11-07T06:58:23.658Z,100423.87
2022-11-07T07:00:59.156Z,100425.98
2022-11-07T07:03:31.249Z,100426.66
2022-11-07T07:06:08.183Z,100428.24
2022-11-07T07:08:40.760Z,100432.80
2022-11-07T07:11:15.609Z,100435.94
2022-11-07T07:13:47.783Z,100440.52
2022-11-07T07:16:19.980Z,100446.52
2022-11-07T07:18:52.136Z,100442.13
2022-11-07T07:21:24.408Z,100449.00
2022-11-07T07:23:56.713Z,100449.98
2022-11-07T07:26:29.546Z,100445.52
2022-11-07T07:29:01.897Z,100445.19
2022-11-07T07:31:34.520Z,100443.37
2022-11-07T07:34:06.785Z,100440.08
2022-11-07T07:36:39.128Z,100444.02
2022-11-07T07:39:11.640Z,100444.29
2022-11-07T07:41:43.688Z,100449.88
2022-11-07T07:44:24.111Z,100451.95
2022-11-07T07:46:56.185Z,100435.17
2022-11-07T07:49:29.161Z,100444.16
2022-11-07T07:52:01.112Z,100447.85
2022-11-07T07:54:33.311Z,100444.27
2022-11-07T07:57:06.016Z,100446.79
2022-11-07T07:59:38.122Z,100444.56
2022-11-07T08:02:13.017Z,100449.73
2022-11-07T08:04:45.726Z,100448.41
2022-11-07T08:07:17.810Z,100450.48
2022-11-07T08:09:50.016Z,100448.67
2022-11-07T08:12:22.143Z,100453.80
2022-11-07T08:14:54.177Z,100451.93
2022-11-07T08:17:26.154Z,100438.55
2022-11-07T08:19:58.275Z,100442.77
2022-11-07T08:22:30.685Z,100452.95
2022-11-07T08:25:02.909Z,100457.33
2022-11-07T08:27:35.653Z,100459.19
2022-11-07T08:30:16.636Z,100467.59
2022-11-07T08:32:50.169Z,100471.84
2022-11-07T08:35:22.636Z,100472.25
2022-11-07T08:37:56.223Z,100469.21
2022-11-07T08:40:28.726Z,100471.65
2022-11-07T08:43:03.308Z,100482.19
2022-11-07T08:45:35.592Z,100487.39
2022-11-07T08:48:08.500Z,100483.73
2022-11-07T08:50:40.627Z,100489.73
2022-11-07T08:53:12.844Z,100493.14
2022-11-07T08:55:45.127Z,100496.64
2022-11-07T08:58:17.768Z,100494.75
2022-11-07T09:00:49.970Z,100494.10
2022-11-07T09:06:14.158Z,100498.76
2022-11-07T09:08:46.199Z,100501.27
2022-11-07T09:11:19.314Z,100498.93
2022-11-07T09:13:51.560Z,100505.43
2022-11-07T09:16:24.555Z,100498.80
2022-11-07T09:18:57.122Z,100501.13
2022-11-07T09:21:29.219Z,100492.91
2022-11-07T09:24:01.284Z,100506.13
2022-11-07T09:26:34.072Z,100506.88
2022-11-07T09:29:06.532Z,100512.33
2022-11-07T09:31:38.915Z,100516.52
2022-11-07T09:34:10.919Z,100522.20
2022-11-07T09:36:42.955Z,100524.95
2022-11-07T09:39:14.997Z,100527.64
2022-11-07T09:41:57.165Z,100531.03
2022-11-07T09:44:54.417Z,100531.67
2022-11-07T09:47:35.962Z,100535.08
2022-11-07T09:50:15.710Z,100538.88
2022-11-07T09:52:55.100Z,100534.23
2022-11-07T09:55:33.475Z,100535.67
2022-11-07T09:58:12.055Z,100534.14
2022-11-07T10:00:44.791Z,100540.92
2022-11-07T10:03:17.314Z,100543.02
2022-11-07T10:05:55.872Z,100539.15
2022-11-07T10:08:36.415Z,100533.33
2022-11-07T10:11:14.136Z,100533.30
2022-11-07T10:13:58.460Z,100534.09
2022-11-07T10:16:43.640Z,100539.27
2022-11-07T10:19:21.396Z,100545.91
2022-11-07T10:22:00.888Z,100543.99
2022-11-07T10:24:47.279Z,100539.69
2022-11-07T10:27:21.778Z,100542.11
2022-11-07T10:29:56.454Z,100544.80
2022-11-07T10:32:30.740Z,100538.37
2022-11-07T10:35:17.241Z,100541.98
2022-11-07T10:37:57.338Z,100543.82
2022-11-07T10:40:38.582Z,100541.73
2022-11-07T10:43:19.189Z,100538.81
2022-11-07T10:45:53.467Z,100547.10
2022-11-07T10:48:29.554Z,100543.48
2022-11-07T10:51:01.984Z,100537.96
2022-11-07T10:53:43.930Z,100534.06
2022-11-07T10:56:20.035Z,100534.89
2022-11-07T10:58:54.392Z,100536.40
2022-11-07T11:01:30.415Z,100527.21
2022-11-07T11:04:03.289Z,100525.61
2022-11-07T11:06:35.668Z,100523.85
2022-11-07T11:09:20.000Z,100508.23
2022-11-07T11:11:56.061Z,100516.30
2022-11-07T11:14:28.480Z,100520.23
2022-11-07T11:17:00.673Z,100519.27
2022-11-07T11:19:41.254Z,100516.54
2022-11-07T11:22:20.428Z,100515.34
2022-11-07T11:25:15.326Z,100515.83
2022-11-07T11:27:50.326Z,100518.83
2022-11-07T11:30:23.415Z,100521.84
2022-11-07T11:33:04.442Z,100518.80
2022-11-07T11:35:42.567Z,100520.95
2022-11-07T11:38:18.938Z,100523.61
2022-11-07T11:41:03.312Z,100523.78
2022-11-07T11:43:46.714Z,100526.23
2022-11-07T11:46:27.932Z,100526.55
2022-11-07T11:49:02.842Z,100533.34
2022-11-07T11:51:41.999Z,100528.48
2022-11-07T11:54:16.603Z,100529.31
2022-11-07T11:56:55.007Z,100530.75
2022-11-07T11:59:49.234Z,100531.83
2022-11-07T12:02:40.029Z,100528.85
2022-11-07T12:05:25.111Z,100535.61
2022-11-07T12:08:09.533Z,100530.87
2022-11-07T12:10:54.007Z,100529.17
2022-11-07T12:13:37.900Z,100528.79
2022-11-07T12:16:21.226Z,100520.34
2022-11-07T12:19:04.608Z,100526.59
2022-11-07T12:21:45.910Z,100522.55
2022-11-07T12:24:29.275Z,100521.79
2022-11-07T12:27:10.468Z,100525.67
2022-11-07T12:29:59.858Z,100519.52
2022-11-07T12:32:42.007Z,100523.02
2022-11-07T12:35:33.605Z,100525.01
2022-11-07T12:38:40.049Z,100519.02
2022-11-07T12:41:20.442Z,100522.58
2022-11-07T12:44:05.948Z,100519.09
2022-11-07T12:46:49.039Z,100526.70
2022-11-07T12:52:37.431Z,100519.84
2022-11-07T12:55:21.149Z,100516.82
2022-11-07T12:57:57.318Z,100515.08
2022-11-07T13:00:31.212Z,100514.34
2022-11-07T13:03:24.225Z,100500.66
2022-11-07T13:06:07.108Z,100506.16
2022-11-07T13:08:47.068Z,100498.86
2022-11-07T13:11:29.061Z,100506.02
2022-11-07T13:14:24.045Z,100512.30
2022-11-07T13:17:20.293Z,100512.84
2022-11-07T13:20:04.480Z,100507.11
2022-11-07T13:22:40.199Z,100513.85
2022-11-07T13:25:29.105Z,100514.40
2022-11-07T13:28:25.521Z,100517.90
2022-11-07T13:31:05.151Z,100522.45
2022-11-07T13:33:43.343Z,100516.95
2022-11-07T13:36:27.470Z,100510.80
2022-11-07T13:39:01.980Z,100517.30
2022-11-07T13:41:36.752Z,100518.33
2022-11-07T13:44:19.547Z,100518.17
2022-11-07T13:46:57.303Z,100523.39
2022-11-07T13:49:39.963Z,100526.30
2022-11-07T13:52:26.220Z,100528.40
2022-11-07T13:55:05.391Z,100523.24
2022-11-07T13:57:45.313Z,100511.23
2022-11-07T14:00:25.741Z,100524.66
2022-11-07T14:03:01.195Z,100529.97
2022-11-07T14:05:38.924Z,100533.66
2022-11-07T14:08:24.854Z,100535.38
2022-11-07T14:10:58.921Z,100538.41
2022-11-07T14:13:41.225Z,100538.24
2022-11-07T14:16:27.239Z,100537.16
2022-11-07T14:19:03.370Z,100541.15
2022-11-07T14:21:38.255Z,100544.37
2022-11-07T14:24:25.367Z,100545.20
2022-11-07T14:27:09.787Z,100536.31
2022-11-07T14:29:52.811Z,100536.52
2022-11-07T14:32:31.983Z,100539.11
2022-11-07T14:35:11.445Z,100534.19
2022-11-07T14:37:43.663Z,100535.83
2022-11-07T14:40:18.475Z,100529.14
2022-11-07T14:42:52.833Z,100529.80
2022-11-07T14:46:05.564Z,100531.09
2022-11-07T14:48:21.282Z,100527.93
2022-11-07T14:50:54.427Z,100528.80
2022-11-07T14:53:33.964Z,100528.34
2022-11-07T14:56:14.353Z,100527.20
2022-11-07T14:58:47.019Z,100528.40
2022-11-07T15:01:29.090Z,100524.23
2022-11-07T15:04:05.549Z,100520.95
2022-11-07T15:06:45.508Z,100522.83
2022-11-07T15:09:18.612Z,100505.62
2022-11-07T15:12:00.580Z,100519.64
2022-11-07T15:14:39.848Z,100520.30
2022-11-07T15:17:24.860Z,100518.33
2022-11-07T15:20:03.774Z,100521.42
2022-11-07T15:22:41.532Z,100527.48
2022-11-07T15:25:29.581Z,100525.39
2022-11-07T15:28:17.464Z,100524.05
2022-11-07T15:30:51.864Z,100519.18
2022-11-07T15:33:25.873Z,100515.77
2022-11-07T15:36:03.094Z,100515.88
2022-11-07T15:38:35.595Z,100514.61
2022-11-07T15:41:09.219Z,100518.09
2022-11-07T15:43:43.514Z,100522.92
2022-11-07T15:46:27.239Z,100517.89
2022-11-07T15:49:00.469Z,100503.66
2022-11-07T15:51:32.900Z,100515.74
2022-11-07T15:54:05.168Z,100514.35
2022-11-07T15:56:37.678Z,100512.04
2022-11-07T15:59:19.630Z,100510.11
2022-11-07T16:01:53.059Z,100517.82
2022-11-07T16:04:26.860Z,100517.16
2022-11-07T16:06:59.165Z,100519.34
2022-11-07T16:09:35.612Z,100520.33
2022-11-07T16:12:10.296Z,100524.43
2022-11-07T16:14:44.543Z,100527.59
2022-11-07T16:17:19.959Z,100526.34
2022-11-07T16:19:53.097Z,100529.37
2022-11-07T16:22:29.597Z,100529.59
2022-11-07T16:25:08.816Z,100530.53
2022-11-07T16:27:51.251Z,100533.28
2022-11-07T16:30:26.985Z,100532.66
2022-11-07T16:33:01.221Z,100534.23
2022-11-07T16:35:35.966Z,100530.54
2022-11-07T16:38:16.868Z,100532.63
2022-11-07T16:40:49.889Z,100524.38
2022-11-07T16:43:24.676Z,100524.88
2022-11-07T16:45:59.272Z,100531.73
2022-11-07T16:48:31.869Z,100532.27
2022-11-07T16:51:05.460Z,100533.71
2022-11-07T16:53:40.922Z,100522.41
2022-11-07T16:56:25.540Z,100532.91
2022-11-07T16:58:59.804Z,100531.61
2022-11-07T17:01:32.567Z,100538.13
2022-11-07T17:04:07.671Z,100539.55
2022-11-07T17:06:43.947Z,100541.99
2022-11-07T17:09:20.384Z,100538.38
2022-11-07T17:11:52.947Z,100537.48
2022-11-07T17:14:25.708Z,100542.60
2022-11-07T17:17:01.879Z,100547.73
2022-11-07T17:19:35.402Z,100548.78
2022-11-07T17:22:11.378Z,100552.23
2022-11-07T17:24:46.554Z,100548.23
2022-11-07T17:27:29.652Z,100551.83
2022-11-07T17:30:08.199Z,100554.07
2022-11-07T17:32:42.064Z,100549.84
2022-11-07T17:38:07.894Z,100543.63
2022-11-07T17:40:41.383Z,100510.36
2022-11-07T17:43:14.254Z,100552.78
2022-11-07T17:45:48.627Z,100553.81
2022-11-07T17:48:23.009Z,100557.87
2022-11-07T17:50:55.473Z,100559.23
2022-11-07T17:53:32.685Z,100562.26
2022-11-07T17:56:07.656Z,100558.97
2022-11-07T17:58:40.552Z,100562.45
2022-11-07T18:01:18.188Z,100554.02
2022-11-07T18:03:52.281Z,100535.96
2022-11-07T18:06:26.743Z,100552.83
2022-11-07T18:09:00.819Z,100556.16
2022-11-07T18:11:36.615Z,100556.35
2022-11-07T18:14:13.457Z,100544.56
2022-11-07T18:16:45.966Z,100567.73
2022-11-07T18:19:19.648Z,100567.73
2022-11-07T18:21:54.961Z,100562.50
2022-11-07T18:24:28.600Z,100559.94
2022-11-07T18:27:01.064Z,100557.58
2022-11-07T18:29:33.656Z,100557.80
2022-11-07T18:32:10.857Z,100554.70
2022-11-07T18:34:43.585Z,100556.52
2022-11-07T18:37:15.682Z,100553.73
2022-11-07T18:39:47.985Z,100557.83
2022-11-07T18:42:20.378Z,100557.52
2022-11-07T18:44:54.145Z,100555.81
2022-11-07T18:47:26.430Z,100562.46
2022-11-07T18:50:01.359Z,100559.63
2022-11-07T18:52:34.763Z,100566.84
2022-11-07T18:55:11.683Z,100568.17
2022-11-07T18:57:43.776Z,100570.77
2022-11-07T19:00:23.396Z,100567.31
2022-11-07T19:02:55.854Z,100564.69
2022-11-07T19:05:29.344Z,100569.70
2022-11-07T19:08:01.901Z,100571.62
2022-11-07T19:10:36.039Z,100574.07
2022-11-07T19:13:08.672Z,100571.20
2022-11-07T19:15:42.875Z,100570.24
2022-11-07T19:18:15.903Z,100567.61
2022-11-07T19:20:48.832Z,100565.62
2022-11-07T19:23:22.231Z,100566.15
2022-11-07T19:25:55.568Z,100563.29
2022-11-07T19:28:27.730Z,100561.66
2022-11-07T19:31:03.001Z,100564.32
2022-11-07T19:33:35.345Z,100565.05
2022-11-07T19:36:13.370Z,100551.72
2022-11-07T19:38:46.786Z,100570.41
2022-11-07T19:41:20.057Z,100570.68
2022-11-07T19:43:52.662Z,100574.65
2022-11-07T19:46:27.073Z,100568.30
2022-11-07T19:49:00.985Z,100577.68
2022-11-07T19:51:33.977Z,100575.43
2022-11-07T19:54:09.812Z,100573.36
2022-11-07T19:56:49.876Z,100575.56
2022-11-07T19:59:29.836Z,100577.83
2022-11-07T20:05:30.788Z,100580.48
2022-11-07T20:08:48.034Z,100585.14
2022-11-07T20:11:55.184Z,100589.52
2022-11-07T20:14:53.457Z,100592.88
2022-11-07T20:17:26.914Z,100597.67
2022-11-07T20:20:07.243Z,100594.91
2022-11-07T20:22:49.774Z,100594.45
2022-11-07T20:25:24.881Z,100597.55
2022-11-07T20:28:00.577Z,100592.67
2022-11-07T20:30:44.549Z,100597.66
2022-11-07T20:33:20.740Z,100597.49
2022-11-07T20:36:09.259Z,100599.66
2022-11-07T20:38:43.242Z,100599.19
2022-11-07T20:41:22.133Z,100587.78
2022-11-07T20:44:01.475Z,100595.27
2022-11-07T20:46:42.326Z,100596.73
2022-11-07T20:49:22.401Z,100603.95
2022-11-07T20:52:27.235Z,100582.34
2022-11-07T20:55:03.074Z,100601.03
2022-11-07T20:58:13.823Z,100600.98
2022-11-07T21:00:54.578Z,100604.27
2022-11-07T21:03:37.032Z,100601.48
2022-11-07T21:06:16.699Z,100586.27
2022-11-07T21:09:20.694Z,100600.19
2022-11-07T21:12:17.855Z,100599.48
2022-11-07T21:14:50.592Z,100597.70
2022-11-07T21:17:25.682Z,100601.23
2022-11-07T21:19:58.888Z,100603.58
2022-11-07T21:22:32.552Z,100603.73
2022-11-07T21:25:09.996Z,100602.64
2022-11-07T21:27:44.037Z,100605.80
2022-11-07T21:30:17.360Z,100599.09
2022-11-07T21:32:49.504Z,100603.36
2022-11-07T21:35:24.373Z,100602.83
2022-11-07T21:37:57.532Z,100598.98
2022-11-07T21:40:31.068Z,100597.32
2022-11-07T21:43:04.444Z,100596.58
2022-11-07T21:45:39.228Z,100597.39
2022-11-07T21:48:13.051Z,100597.27
2022-11-07T21:50:45.720Z,100598.49
2022-11-07T21:53:19.335Z,100593.74
2022-11-07T21:55:52.273Z,100598.66
2022-11-07T21:58:25.053Z,100601.05
2022-11-07T22:01:01.758Z,100599.77
2022-11-07T22:04:04.289Z,100598.04
2022-11-07T22:06:27.260Z,100598.99
2022-11-07T22:08:59.375Z,100595.92
2022-11-07T22:11:31.706Z,100595.96
2022-11-07T22:14:03.932Z,100596.02
2022-11-07T22:16:36.481Z,100597.81
2022-11-07T22:19:12.448Z,100599.55
2022-11-07T22:21:50.212Z,100599.75
2022-11-07T22:24:25.586Z,100602.48
2022-11-07T22:27:00.651Z,100603.23
2022-11-07T22:29:34.267Z,100609.10
2022-11-07T22:32:09.963Z,100603.48
2022-11-07T22:34:43.858Z,100588.52
2022-11-07T22:37:17.387Z,100609.94
2022-11-07T22:39:49.653Z,100614.34
2022-11-07T22:42:23.884Z,100610.36
2022-11-07T22:44:57.898Z,100612.06
2022-11-07T22:47:30.524Z,100612.66
2022-11-07T22:50:02.558Z,100621.14
2022-11-07T22:52:35.132Z,100623.80
2022-11-07T22:55:09.663Z,100624.87
2022-11-07T22:57:44.442Z,100626.73
2022-11-07T23:00:23.000Z,100624.67
2022-11-07T23:02:55.927Z,100628.71
2022-11-07T23:05:29.445Z,100629.09
2022-11-07T23:08:19.873Z,100628.63
2022-11-07T23:11:32.530Z,100631.94
2022-11-07T23:14:00.774Z,100634.10
2022-11-07T23:16:35.230Z,100633.71
2022-11-07T23:19:12.568Z,100629.37
2022-11-07T23:21:46.842Z,100625.59
2022-11-07T23:24:19.067Z,100622.56
2022-11-07T23:26:52.523Z,100623.05
2022-11-07T23:29:26.816Z,100616.17
2022-11-07T23:31:57.968Z,100627.44
2022-11-07T23:34:57.779Z,100626.93
2022-11-07T23:37:31.528Z,100627.64
2022-11-07T23:40:04.026Z,100634.61
2022-11-07T23:42:36.325Z,100629.00
2022-11-07T23:45:30.749Z,100633.20
2022-11-07T23:48:22.339Z,100629.46
2022-11-07T23:51:03.593Z,100629.17
2022-11-07T23:53:58.200Z,100629.19
2022-11-07T23:56:31.611Z,100629.14
2022-11-07T23:59:22.258Z,100630.69
